sensor_id;sensor_type;location;lat;lon;timestamp;temperature;humidity
71237;DHT22;58984;51.960;5.582;2022-07-25T00:01:29;30.50;45.30
71237;DHT22;58984;51.960;5.582;2022-07-25T00:03:55;30.50;45.30
71237;DHT22;58984;51.960;5.582;2022-07-25T00:06:20;30.50;45.30
71237;DHT22;58984;51.960;5.582;2022-07-25T00:08:46;30.50;45.30
71237;DHT22;58984;51.960;5.582;2022-07-25T00:11:11;30.50;45.30
71237;DHT22;58984;51.960;5.582;2022-07-25T00:13:37;30.50;45.40
71237;DHT22;58984;51.960;5.582;2022-07-25T00:16:02;30.40;45.30
71237;DHT22;58984;51.960;5.582;2022-07-25T00:18:28;30.40;45.30
71237;DHT22;58984;51.960;5.582;2022-07-25T00:20:53;30.40;45.30
71237;DHT22;58984;51.960;5.582;2022-07-25T00:23:19;30.40;45.40
71237;DHT22;58984;51.960;5.582;2022-07-25T00:25:44;30.40;45.40
71237;DHT22;58984;51.960;5.582;2022-07-25T00:28:10;30.40;45.40
71237;DHT22;58984;51.960;5.582;2022-07-25T00:30:35;30.40;45.40
71237;DHT22;58984;51.960;5.582;2022-07-25T00:33:00;30.30;45.30
71237;DHT22;58984;51.960;5.582;2022-07-25T00:35:26;30.30;45.40
71237;DHT22;58984;51.960;5.582;2022-07-25T00:37:51;30.30;45.40
71237;DHT22;58984;51.960;5.582;2022-07-25T00:40:17;30.30;45.40
71237;DHT22;58984;51.960;5.582;2022-07-25T00:42:42;30.30;45.40
71237;DHT22;58984;51.960;5.582;2022-07-25T00:45:08;30.30;45.40
71237;DHT22;58984;51.960;5.582;2022-07-25T00:47:34;30.30;45.40
71237;DHT22;58984;51.960;5.582;2022-07-25T00:50:00;30.30;45.40
71237;DHT22;58984;51.960;5.582;2022-07-25T00:52:25;30.20;45.40
71237;DHT22;58984;51.960;5.582;2022-07-25T00:54:51;30.20;45.40
71237;DHT22;58984;51.960;5.582;2022-07-25T00:57:17;30.20;45.30
71237;DHT22;58984;51.960;5.582;2022-07-25T00:59:42;30.20;45.40
71237;DHT22;58984;51.960;5.582;2022-07-25T01:02:08;30.20;45.40
71237;DHT22;58984;51.960;5.582;2022-07-25T01:04:33;30.20;45.30
71237;DHT22;58984;51.960;5.582;2022-07-25T01:06:59;30.20;45.40
71237;DHT22;58984;51.960;5.582;2022-07-25T01:09:25;30.20;45.40
71237;DHT22;58984;51.960;5.582;2022-07-25T01:11:50;30.10;45.40
71237;DHT22;58984;51.960;5.582;2022-07-25T01:14:16;30.20;45.50
71237;DHT22;58984;51.960;5.582;2022-07-25T01:16:41;30.20;45.40
71237;DHT22;58984;51.960;5.582;2022-07-25T01:19:07;30.10;45.40
71237;DHT22;58984;51.960;5.582;2022-07-25T01:21:32;30.20;45.40
71237;DHT22;58984;51.960;5.582;2022-07-25T01:23:58;30.10;45.40
71237;DHT22;58984;51.960;5.582;2022-07-25T01:26:24;30.10;45.40
71237;DHT22;58984;51.960;5.582;2022-07-25T01:28:49;30.10;45.40
71237;DHT22;58984;51.960;5.582;2022-07-25T01:31:15;30.10;45.30
71237;DHT22;58984;51.960;5.582;2022-07-25T01:33:40;30.10;45.40
71237;DHT22;58984;51.960;5.582;2022-07-25T01:36:06;30.10;46.00
71237;DHT22;58984;51.960;5.582;2022-07-25T01:38:31;30.00;45.30
71237;DHT22;58984;51.960;5.582;2022-07-25T01:40:57;30.00;45.30
71237;DHT22;58984;51.960;5.582;2022-07-25T01:43:22;30.10;45.40
71237;DHT22;58984;51.960;5.582;2022-07-25T01:45:48;30.00;45.30
71237;DHT22;58984;51.960;5.582;2022-07-25T01:48:13;30.10;45.40
71237;DHT22;58984;51.960;5.582;2022-07-25T01:50:39;30.00;45.30
71237;DHT22;58984;51.960;5.582;2022-07-25T01:53:04;30.00;45.30
71237;DHT22;58984;51.960;5.582;2022-07-25T01:55:29;30.00;45.30
71237;DHT22;58984;51.960;5.582;2022-07-25T01:57:55;29.90;45.30
71237;DHT22;58984;51.960;5.582;2022-07-25T02:00:20;30.00;45.30
71237;DHT22;58984;51.960;5.582;2022-07-25T02:02:46;30.00;45.30
71237;DHT22;58984;51.960;5.582;2022-07-25T02:05:12;29.90;45.20
71237;DHT22;58984;51.960;5.582;2022-07-25T02:07:38;29.90;45.30
71237;DHT22;58984;51.960;5.582;2022-07-25T02:10:04;29.90;45.30
71237;DHT22;58984;51.960;5.582;2022-07-25T02:12:30;29.90;45.30
71237;DHT22;58984;51.960;5.582;2022-07-25T02:14:55;29.90;45.30
71237;DHT22;58984;51.960;5.582;2022-07-25T02:17:21;29.90;45.20
71237;DHT22;58984;51.960;5.582;2022-07-25T02:19:46;29.90;45.20
71237;DHT22;58984;51.960;5.582;2022-07-25T02:22:12;29.90;45.20
71237;DHT22;58984;51.960;5.582;2022-07-25T02:24:37;29.90;45.20
71237;DHT22;58984;51.960;5.582;2022-07-25T02:27:03;29.90;45.20
71237;DHT22;58984;51.960;5.582;2022-07-25T02:29:29;29.90;45.30
71237;DHT22;58984;51.960;5.582;2022-07-25T02:31:54;29.90;45.20
71237;DHT22;58984;51.960;5.582;2022-07-25T02:34:20;29.90;45.20
71237;DHT22;58984;51.960;5.582;2022-07-25T02:36:45;29.90;45.20
71237;DHT22;58984;51.960;5.582;2022-07-25T02:39:11;29.90;45.20
71237;DHT22;58984;51.960;5.582;2022-07-25T02:41:37;29.80;45.20
71237;DHT22;58984;51.960;5.582;2022-07-25T02:44:05;29.90;45.30
71237;DHT22;58984;51.960;5.582;2022-07-25T02:46:31;29.80;45.20
71237;DHT22;58984;51.960;5.582;2022-07-25T02:48:57;29.90;45.30
71237;DHT22;58984;51.960;5.582;2022-07-25T02:51:23;29.80;45.30
71237;DHT22;58984;51.960;5.582;2022-07-25T02:53:48;29.80;45.30
71237;DHT22;58984;51.960;5.582;2022-07-25T02:56:14;29.80;45.30
71237;DHT22;58984;51.960;5.582;2022-07-25T02:58:39;29.80;45.40
71237;DHT22;58984;51.960;5.582;2022-07-25T03:01:05;29.80;45.40
71237;DHT22;58984;51.960;5.582;2022-07-25T03:03:30;29.80;45.40
71237;DHT22;58984;51.960;5.582;2022-07-25T03:05:56;29.80;45.50
71237;DHT22;58984;51.960;5.582;2022-07-25T03:08:21;29.80;45.60
71237;DHT22;58984;51.960;5.582;2022-07-25T03:10:46;29.70;45.50
71237;DHT22;58984;51.960;5.582;2022-07-25T03:13:12;29.70;45.60
71237;DHT22;58984;51.960;5.582;2022-07-25T03:15:37;29.80;45.70
71237;DHT22;58984;51.960;5.582;2022-07-25T03:18:03;29.70;45.60
71237;DHT22;58984;51.960;5.582;2022-07-25T03:20:28;29.70;45.60
71237;DHT22;58984;51.960;5.582;2022-07-25T03:22:54;29.70;45.60
71237;DHT22;58984;51.960;5.582;2022-07-25T03:25:19;29.70;45.50
71237;DHT22;58984;51.960;5.582;2022-07-25T03:27:45;29.70;45.60
71237;DHT22;58984;51.960;5.582;2022-07-25T03:30:10;29.70;45.60
71237;DHT22;58984;51.960;5.582;2022-07-25T03:32:36;29.70;45.60
71237;DHT22;58984;51.960;5.582;2022-07-25T03:35:02;29.60;45.60
71237;DHT22;58984;51.960;5.582;2022-07-25T03:37:27;29.60;45.60
71237;DHT22;58984;51.960;5.582;2022-07-25T03:39:53;29.60;45.60
71237;DHT22;58984;51.960;5.582;2022-07-25T03:42:18;29.60;45.60
71237;DHT22;58984;51.960;5.582;2022-07-25T03:44:44;29.60;45.60
71237;DHT22;58984;51.960;5.582;2022-07-25T03:47:09;29.60;45.60
71237;DHT22;58984;51.960;5.582;2022-07-25T03:49:35;29.60;45.60
71237;DHT22;58984;51.960;5.582;2022-07-25T03:52:00;29.60;45.60
71237;DHT22;58984;51.960;5.582;2022-07-25T03:54:26;29.60;45.60
71237;DHT22;58984;51.960;5.582;2022-07-25T03:56:51;29.50;45.60
71237;DHT22;58984;51.960;5.582;2022-07-25T03:59:18;29.50;45.60
71237;DHT22;58984;51.960;5.582;2022-07-25T04:01:44;29.50;45.60
71237;DHT22;58984;51.960;5.582;2022-07-25T04:04:10;29.50;45.60
71237;DHT22;58984;51.960;5.582;2022-07-25T04:06:36;29.50;45.60
71237;DHT22;58984;51.960;5.582;2022-07-25T04:09:02;29.50;45.60
71237;DHT22;58984;51.960;5.582;2022-07-25T04:11:27;29.50;45.60
71237;DHT22;58984;51.960;5.582;2022-07-25T04:13:55;29.40;45.50
71237;DHT22;58984;51.960;5.582;2022-07-25T04:16:20;29.50;45.60
71237;DHT22;58984;51.960;5.582;2022-07-25T04:18:46;29.40;45.50
71237;DHT22;58984;51.960;5.582;2022-07-25T04:21:11;29.40;45.50
71237;DHT22;58984;51.960;5.582;2022-07-25T04:23:36;29.40;45.50
71237;DHT22;58984;51.960;5.582;2022-07-25T04:26:02;29.40;45.50
71237;DHT22;58984;51.960;5.582;2022-07-25T04:28:28;29.40;45.50
71237;DHT22;58984;51.960;5.582;2022-07-25T04:30:53;29.40;45.50
71237;DHT22;58984;51.960;5.582;2022-07-25T04:33:19;29.40;45.50
71237;DHT22;58984;51.960;5.582;2022-07-25T04:35:45;29.40;45.50
71237;DHT22;58984;51.960;5.582;2022-07-25T04:38:10;29.30;45.50
71237;DHT22;58984;51.960;5.582;2022-07-25T04:40:36;29.40;45.50
71237;DHT22;58984;51.960;5.582;2022-07-25T04:43:02;29.40;45.50
71237;DHT22;58984;51.960;5.582;2022-07-25T04:45:27;29.40;45.50
71237;DHT22;58984;51.960;5.582;2022-07-25T04:47:53;29.40;45.50
71237;DHT22;58984;51.960;5.582;2022-07-25T04:50:18;29.30;45.50
71237;DHT22;58984;51.960;5.582;2022-07-25T04:52:44;29.30;45.50
71237;DHT22;58984;51.960;5.582;2022-07-25T04:55:09;29.30;45.50
71237;DHT22;58984;51.960;5.582;2022-07-25T04:57:35;29.30;45.50
71237;DHT22;58984;51.960;5.582;2022-07-25T05:00:02;29.30;45.50
71237;DHT22;58984;51.960;5.582;2022-07-25T05:02:28;29.30;45.50
71237;DHT22;58984;51.960;5.582;2022-07-25T05:04:53;29.30;45.50
71237;DHT22;58984;51.960;5.582;2022-07-25T05:07:19;29.30;45.50
71237;DHT22;58984;51.960;5.582;2022-07-25T05:09:44;29.30;45.50
71237;DHT22;58984;51.960;5.582;2022-07-25T05:12:10;29.30;45.50
71237;DHT22;58984;51.960;5.582;2022-07-25T05:14:35;29.20;45.40
71237;DHT22;58984;51.960;5.582;2022-07-25T05:17:01;29.20;45.40
71237;DHT22;58984;51.960;5.582;2022-07-25T05:19:26;29.20;45.40
71237;DHT22;58984;51.960;5.582;2022-07-25T05:21:52;29.30;45.50
71237;DHT22;58984;51.960;5.582;2022-07-25T05:24:17;29.20;45.40
71237;DHT22;58984;51.960;5.582;2022-07-25T05:26:43;29.20;45.40
71237;DHT22;58984;51.960;5.582;2022-07-25T05:29:08;29.20;45.40
71237;DHT22;58984;51.960;5.582;2022-07-25T05:31:34;29.30;45.50
71237;DHT22;58984;51.960;5.582;2022-07-25T05:34:00;29.20;45.40
71237;DHT22;58984;51.960;5.582;2022-07-25T05:36:25;29.20;45.40
71237;DHT22;58984;51.960;5.582;2022-07-25T05:38:51;29.20;45.50
71237;DHT22;58984;51.960;5.582;2022-07-25T05:41:16;29.20;45.40
71237;DHT22;58984;51.960;5.582;2022-07-25T05:43:42;29.20;45.40
71237;DHT22;58984;51.960;5.582;2022-07-25T05:46:10;29.20;45.40
71237;DHT22;58984;51.960;5.582;2022-07-25T05:48:35;29.20;45.40
71237;DHT22;58984;51.960;5.582;2022-07-25T05:51:01;29.20;45.40
71237;DHT22;58984;51.960;5.582;2022-07-25T05:53:27;29.20;45.40
71237;DHT22;58984;51.960;5.582;2022-07-25T05:55:52;29.20;45.40
71237;DHT22;58984;51.960;5.582;2022-07-25T05:58:18;29.20;45.50
71237;DHT22;58984;51.960;5.582;2022-07-25T06:00:43;29.20;45.50
71237;DHT22;58984;51.960;5.582;2022-07-25T06:03:09;29.20;45.50
71237;DHT22;58984;51.960;5.582;2022-07-25T06:05:34;29.20;45.50
71237;DHT22;58984;51.960;5.582;2022-07-25T06:07:59;29.20;45.80
71237;DHT22;58984;51.960;5.582;2022-07-25T06:10:25;29.20;45.80
71237;DHT22;58984;51.960;5.582;2022-07-25T06:12:51;29.20;45.90
71237;DHT22;58984;51.960;5.582;2022-07-25T06:15:16;29.20;46.00
71237;DHT22;58984;51.960;5.582;2022-07-25T06:17:42;29.20;46.00
71237;DHT22;58984;51.960;5.582;2022-07-25T06:20:07;29.20;46.00
71237;DHT22;58984;51.960;5.582;2022-07-25T06:22:33;29.20;46.00
71237;DHT22;58984;51.960;5.582;2022-07-25T06:25:00;29.20;46.00
71237;DHT22;58984;51.960;5.582;2022-07-25T06:27:27;29.20;46.00
71237;DHT22;58984;51.960;5.582;2022-07-25T06:29:52;29.20;46.00
71237;DHT22;58984;51.960;5.582;2022-07-25T06:32:18;29.20;46.00
71237;DHT22;58984;51.960;5.582;2022-07-25T06:34:43;29.20;46.00
71237;DHT22;58984;51.960;5.582;2022-07-25T06:37:09;29.20;46.10
71237;DHT22;58984;51.960;5.582;2022-07-25T06:39:34;29.30;46.20
71237;DHT22;58984;51.960;5.582;2022-07-25T06:41:59;29.30;46.20
71237;DHT22;58984;51.960;5.582;2022-07-25T06:44:25;29.30;46.30
71237;DHT22;58984;51.960;5.582;2022-07-25T06:46:51;29.30;46.20
71237;DHT22;58984;51.960;5.582;2022-07-25T06:49:17;29.30;46.20
71237;DHT22;58984;51.960;5.582;2022-07-25T06:51:42;29.30;46.30
71237;DHT22;58984;51.960;5.582;2022-07-25T06:54:08;29.30;46.40
71237;DHT22;58984;51.960;5.582;2022-07-25T06:56:33;29.20;46.30
71237;DHT22;58984;51.960;5.582;2022-07-25T06:58:59;29.30;46.40
71237;DHT22;58984;51.960;5.582;2022-07-25T07:01:24;29.20;46.30
71237;DHT22;58984;51.960;5.582;2022-07-25T07:03:50;29.20;46.30
71237;DHT22;58984;51.960;5.582;2022-07-25T07:06:15;29.30;46.40
71237;DHT22;58984;51.960;5.582;2022-07-25T07:08:41;29.20;46.20
71237;DHT22;58984;51.960;5.582;2022-07-25T07:11:06;29.30;46.30
71237;DHT22;58984;51.960;5.582;2022-07-25T07:13:32;29.30;46.20
71237;DHT22;58984;51.960;5.582;2022-07-25T07:15:57;29.40;46.20
71237;DHT22;58984;51.960;5.582;2022-07-25T07:18:23;29.30;46.20
71237;DHT22;58984;51.960;5.582;2022-07-25T07:20:48;29.30;46.20
71237;DHT22;58984;51.960;5.582;2022-07-25T07:23:14;29.30;46.10
71237;DHT22;58984;51.960;5.582;2022-07-25T07:25:39;29.40;46.20
71237;DHT22;58984;51.960;5.582;2022-07-25T07:28:05;29.40;46.20
71237;DHT22;58984;51.960;5.582;2022-07-25T07:30:31;29.40;46.20
71237;DHT22;58984;51.960;5.582;2022-07-25T07:32:56;29.40;46.10
71237;DHT22;58984;51.960;5.582;2022-07-25T07:35:22;29.40;46.10
71237;DHT22;58984;51.960;5.582;2022-07-25T07:37:49;29.40;46.10
71237;DHT22;58984;51.960;5.582;2022-07-25T07:40:16;29.40;46.00
71237;DHT22;58984;51.960;5.582;2022-07-25T07:42:43;29.50;46.20
71237;DHT22;58984;51.960;5.582;2022-07-25T07:45:09;29.50;46.20
71237;DHT22;58984;51.960;5.582;2022-07-25T07:47:35;29.50;46.80
71237;DHT22;58984;51.960;5.582;2022-07-25T07:50:00;29.50;46.10
71237;DHT22;58984;51.960;5.582;2022-07-25T07:52:26;29.50;46.20
71237;DHT22;58984;51.960;5.582;2022-07-25T07:54:51;29.50;46.20
71237;DHT22;58984;51.960;5.582;2022-07-25T07:57:35;29.50;46.20
71237;DHT22;58984;51.960;5.582;2022-07-25T08:00:00;29.50;46.20
71237;DHT22;58984;51.960;5.582;2022-07-25T08:02:26;29.50;46.20
71237;DHT22;58984;51.960;5.582;2022-07-25T08:04:51;29.50;46.20
71237;DHT22;58984;51.960;5.582;2022-07-25T08:07:17;29.50;46.20
71237;DHT22;58984;51.960;5.582;2022-07-25T08:09:42;29.60;46.20
71237;DHT22;58984;51.960;5.582;2022-07-25T08:12:08;29.60;46.20
71237;DHT22;58984;51.960;5.582;2022-07-25T08:14:33;29.60;46.10
71237;DHT22;58984;51.960;5.582;2022-07-25T08:16:59;29.60;46.10
71237;DHT22;58984;51.960;5.582;2022-07-25T08:19:24;29.70;46.10
71237;DHT22;58984;51.960;5.582;2022-07-25T08:21:49;29.60;46.10
71237;DHT22;58984;51.960;5.582;2022-07-25T08:24:15;29.70;46.50
71237;DHT22;58984;51.960;5.582;2022-07-25T08:26:40;29.70;46.80
71237;DHT22;58984;51.960;5.582;2022-07-25T08:29:06;29.70;47.10
71237;DHT22;58984;51.960;5.582;2022-07-25T08:31:31;29.80;47.20
71237;DHT22;58984;51.960;5.582;2022-07-25T08:33:57;29.80;47.00
71237;DHT22;58984;51.960;5.582;2022-07-25T08:36:23;29.80;46.90
71237;DHT22;58984;51.960;5.582;2022-07-25T08:38:48;29.80;46.90
71237;DHT22;58984;51.960;5.582;2022-07-25T08:41:14;29.80;46.80
71237;DHT22;58984;51.960;5.582;2022-07-25T08:43:39;29.80;46.80
71237;DHT22;58984;51.960;5.582;2022-07-25T08:46:05;29.80;46.70
71237;DHT22;58984;51.960;5.582;2022-07-25T08:48:31;29.90;46.80
71237;DHT22;58984;51.960;5.582;2022-07-25T08:50:57;29.90;46.70
71237;DHT22;58984;51.960;5.582;2022-07-25T08:53:23;29.90;46.70
71237;DHT22;58984;51.960;5.582;2022-07-25T08:55:49;29.90;46.80
71237;DHT22;58984;51.960;5.582;2022-07-25T08:58:15;29.90;46.80
71237;DHT22;58984;51.960;5.582;2022-07-25T09:00:41;30.00;46.90
71237;DHT22;58984;51.960;5.582;2022-07-25T09:03:07;29.90;46.70
71237;DHT22;58984;51.960;5.582;2022-07-25T09:05:33;29.90;46.80
71237;DHT22;58984;51.960;5.582;2022-07-25T09:08:05;30.00;46.80
71237;DHT22;58984;51.960;5.582;2022-07-25T09:10:31;29.90;46.80
71237;DHT22;58984;51.960;5.582;2022-07-25T09:12:58;30.00;46.80
71237;DHT22;58984;51.960;5.582;2022-07-25T09:15:25;30.00;46.80
71237;DHT22;58984;51.960;5.582;2022-07-25T09:17:50;30.00;46.80
71237;DHT22;58984;51.960;5.582;2022-07-25T09:20:16;30.00;46.80
71237;DHT22;58984;51.960;5.582;2022-07-25T09:22:42;30.00;46.80
71237;DHT22;58984;51.960;5.582;2022-07-25T09:25:18;30.00;46.80
71237;DHT22;58984;51.960;5.582;2022-07-25T09:27:44;30.00;47.50
71237;DHT22;58984;51.960;5.582;2022-07-25T09:30:13;30.10;46.90
71237;DHT22;58984;51.960;5.582;2022-07-25T09:32:38;30.10;46.90
71237;DHT22;58984;51.960;5.582;2022-07-25T09:35:04;30.10;46.90
71237;DHT22;58984;51.960;5.582;2022-07-25T09:37:29;30.10;46.90
71237;DHT22;58984;51.960;5.582;2022-07-25T09:39:55;30.20;47.00
71237;DHT22;58984;51.960;5.582;2022-07-25T09:42:24;30.20;47.00
71237;DHT22;58984;51.960;5.582;2022-07-25T09:45:07;30.20;46.90
71237;DHT22;58984;51.960;5.582;2022-07-25T09:47:36;30.20;46.90
71237;DHT22;58984;51.960;5.582;2022-07-25T09:50:01;30.30;46.90
71237;DHT22;58984;51.960;5.582;2022-07-25T09:52:27;30.30;47.00
71237;DHT22;58984;51.960;5.582;2022-07-25T09:54:52;30.30;46.90
71237;DHT22;58984;51.960;5.582;2022-07-25T09:57:19;30.40;47.00
71237;DHT22;58984;51.960;5.582;2022-07-25T09:59:45;30.40;46.90
71237;DHT22;58984;51.960;5.582;2022-07-25T10:05:08;30.40;46.90
71237;DHT22;58984;51.960;5.582;2022-07-25T10:07:37;30.50;46.90
71237;DHT22;58984;51.960;5.582;2022-07-25T10:10:03;30.50;46.90
71237;DHT22;58984;51.960;5.582;2022-07-25T10:12:29;30.50;46.80
71237;DHT22;58984;51.960;5.582;2022-07-25T10:15:05;30.50;46.80
71237;DHT22;58984;51.960;5.582;2022-07-25T10:17:31;30.50;46.80
71237;DHT22;58984;51.960;5.582;2022-07-25T10:19:56;30.50;46.70
71237;DHT22;58984;51.960;5.582;2022-07-25T10:22:22;30.50;46.60
71237;DHT22;58984;51.960;5.582;2022-07-25T10:25:05;30.60;46.60
71237;DHT22;58984;51.960;5.582;2022-07-25T10:27:38;30.60;46.50
71237;DHT22;58984;51.960;5.582;2022-07-25T10:30:08;30.60;46.50
71237;DHT22;58984;51.960;5.582;2022-07-25T10:32:34;30.70;46.40
71237;DHT22;58984;51.960;5.582;2022-07-25T10:35:00;30.70;46.50
71237;DHT22;58984;51.960;5.582;2022-07-25T10:37:35;30.70;46.40
71237;DHT22;58984;51.960;5.582;2022-07-25T10:42:36;30.80;46.40
71237;DHT22;58984;51.960;5.582;2022-07-25T10:45:03;30.80;46.40
71237;DHT22;58984;51.960;5.582;2022-07-25T10:50:09;30.90;46.50
71237;DHT22;58984;51.960;5.582;2022-07-25T10:52:39;30.90;46.40
71237;DHT22;58984;51.960;5.582;2022-07-25T10:55:05;30.90;46.40
71237;DHT22;58984;51.960;5.582;2022-07-25T10:57:30;30.90;46.40
71237;DHT22;58984;51.960;5.582;2022-07-25T11:00:03;31.00;46.50
71237;DHT22;58984;51.960;5.582;2022-07-25T11:02:28;31.00;46.50
71237;DHT22;58984;51.960;5.582;2022-07-25T11:04:58;31.00;46.50
71237;DHT22;58984;51.960;5.582;2022-07-25T11:07:24;31.00;46.50
71237;DHT22;58984;51.960;5.582;2022-07-25T11:09:59;31.00;46.50
71237;DHT22;58984;51.960;5.582;2022-07-25T11:12:25;31.00;46.50
71237;DHT22;58984;51.960;5.582;2022-07-25T11:14:54;31.00;46.00
71237;DHT22;58984;51.960;5.582;2022-07-25T11:17:21;31.00;46.50
71237;DHT22;58984;51.960;5.582;2022-07-25T11:19:55;31.00;46.50
71237;DHT22;58984;51.960;5.582;2022-07-25T11:22:20;31.00;46.50
71237;DHT22;58984;51.960;5.582;2022-07-25T11:24:46;31.00;46.50
71237;DHT22;58984;51.960;5.582;2022-07-25T11:27:18;31.00;46.50
71237;DHT22;58984;51.960;5.582;2022-07-25T11:29:44;31.00;46.50
71237;DHT22;58984;51.960;5.582;2022-07-25T11:32:10;31.00;46.50
71237;DHT22;58984;51.960;5.582;2022-07-25T11:34:37;31.00;46.40
71237;DHT22;58984;51.960;5.582;2022-07-25T11:37:03;31.00;46.50
71237;DHT22;58984;51.960;5.582;2022-07-25T11:39:30;31.00;46.30
71237;DHT22;58984;51.960;5.582;2022-07-25T11:42:12;31.00;46.20
71237;DHT22;58984;51.960;5.582;2022-07-25T11:44:47;31.00;46.20
71237;DHT22;58984;51.960;5.582;2022-07-25T11:49:51;30.90;46.10
71237;DHT22;58984;51.960;5.582;2022-07-25T11:52:26;30.90;46.00
71237;DHT22;58984;51.960;5.582;2022-07-25T11:54:55;30.90;46.00
71237;DHT22;58984;51.960;5.582;2022-07-25T11:57:22;30.80;45.90
71237;DHT22;58984;51.960;5.582;2022-07-25T11:59:47;30.90;45.90
71237;DHT22;58984;51.960;5.582;2022-07-25T12:02:23;30.80;45.80
71237;DHT22;58984;51.960;5.582;2022-07-25T12:05:08;30.80;45.80
71237;DHT22;58984;51.960;5.582;2022-07-25T12:12:40;30.80;45.90
71237;DHT22;58984;51.960;5.582;2022-07-25T12:15:08;30.80;45.90
71237;DHT22;58984;51.960;5.582;2022-07-25T12:17:33;30.80;45.90
71237;DHT22;58984;51.960;5.582;2022-07-25T12:19:59;30.80;45.80
71237;DHT22;58984;51.960;5.582;2022-07-25T12:22:24;30.80;45.70
71237;DHT22;58984;51.960;5.582;2022-07-25T12:24:50;30.80;45.70
71237;DHT22;58984;51.960;5.582;2022-07-25T12:27:15;30.80;45.60
71237;DHT22;58984;51.960;5.582;2022-07-25T12:29:40;30.80;45.60
71237;DHT22;58984;51.960;5.582;2022-07-25T12:32:06;30.80;45.70
71237;DHT22;58984;51.960;5.582;2022-07-25T12:34:31;30.80;45.60
71237;DHT22;58984;51.960;5.582;2022-07-25T12:36:57;30.80;45.70
71237;DHT22;58984;51.960;5.582;2022-07-25T12:39:22;30.70;45.70
71237;DHT22;58984;51.960;5.582;2022-07-25T12:41:48;30.70;45.70
71237;DHT22;58984;51.960;5.582;2022-07-25T12:44:14;30.70;45.60
71237;DHT22;58984;51.960;5.582;2022-07-25T12:46:39;30.70;45.60
71237;DHT22;58984;51.960;5.582;2022-07-25T12:49:06;30.70;45.50
71237;DHT22;58984;51.960;5.582;2022-07-25T12:51:31;30.70;45.40
71237;DHT22;58984;51.960;5.582;2022-07-25T12:53:57;30.60;45.30
71237;DHT22;58984;51.960;5.582;2022-07-25T12:56:22;30.60;45.20
71237;DHT22;58984;51.960;5.582;2022-07-25T12:58:47;30.60;45.30
71237;DHT22;58984;51.960;5.582;2022-07-25T13:01:14;30.60;45.20
71237;DHT22;58984;51.960;5.582;2022-07-25T13:03:40;30.50;45.10
71237;DHT22;58984;51.960;5.582;2022-07-25T13:06:05;30.50;45.10
71237;DHT22;58984;51.960;5.582;2022-07-25T13:08:31;30.50;45.00
71237;DHT22;58984;51.960;5.582;2022-07-25T13:10:57;30.40;45.00
71237;DHT22;58984;51.960;5.582;2022-07-25T13:13:22;30.40;45.20
71237;DHT22;58984;51.960;5.582;2022-07-25T13:15:47;30.50;45.30
71237;DHT22;58984;51.960;5.582;2022-07-25T13:18:13;30.40;45.30
71237;DHT22;58984;51.960;5.582;2022-07-25T13:20:38;30.40;45.40
71237;DHT22;58984;51.960;5.582;2022-07-25T13:23:04;30.40;45.40
71237;DHT22;58984;51.960;5.582;2022-07-25T13:25:29;30.40;45.50
71237;DHT22;58984;51.960;5.582;2022-07-25T13:27:56;30.50;45.60
71237;DHT22;58984;51.960;5.582;2022-07-25T13:30:21;30.40;45.50
71237;DHT22;58984;51.960;5.582;2022-07-25T13:32:47;30.50;45.60
71237;DHT22;58984;51.960;5.582;2022-07-25T13:35:13;30.50;45.50
71237;DHT22;58984;51.960;5.582;2022-07-25T13:37:38;30.50;45.30
71237;DHT22;58984;51.960;5.582;2022-07-25T13:40:04;30.50;45.30
71237;DHT22;58984;51.960;5.582;2022-07-25T13:42:30;30.50;45.30
71237;DHT22;58984;51.960;5.582;2022-07-25T13:44:55;30.50;45.30
71237;DHT22;58984;51.960;5.582;2022-07-25T13:47:21;30.50;45.30
71237;DHT22;58984;51.960;5.582;2022-07-25T13:49:47;30.50;45.30
71237;DHT22;58984;51.960;5.582;2022-07-25T13:52:12;30.50;45.30
71237;DHT22;58984;51.960;5.582;2022-07-25T13:54:38;30.50;45.30
71237;DHT22;58984;51.960;5.582;2022-07-25T13:57:03;30.50;45.30
71237;DHT22;58984;51.960;5.582;2022-07-25T13:59:29;30.50;45.40
71237;DHT22;58984;51.960;5.582;2022-07-25T14:01:54;30.60;45.50
71237;DHT22;58984;51.960;5.582;2022-07-25T14:04:20;30.50;45.50
71237;DHT22;58984;51.960;5.582;2022-07-25T14:06:45;30.50;45.50
71237;DHT22;58984;51.960;5.582;2022-07-25T14:09:16;30.60;46.20
71237;DHT22;58984;51.960;5.582;2022-07-25T14:11:41;30.60;45.60
71237;DHT22;58984;51.960;5.582;2022-07-25T14:14:07;30.60;45.60
71237;DHT22;58984;51.960;5.582;2022-07-25T14:16:32;30.60;45.60
71237;DHT22;58984;51.960;5.582;2022-07-25T14:18:59;30.60;45.00
71237;DHT22;58984;51.960;5.582;2022-07-25T14:21:24;30.60;45.60
71237;DHT22;58984;51.960;5.582;2022-07-25T14:23:50;30.60;45.60
71237;DHT22;58984;51.960;5.582;2022-07-25T14:26:15;30.60;45.60
71237;DHT22;58984;51.960;5.582;2022-07-25T14:28:41;30.60;45.60
71237;DHT22;58984;51.960;5.582;2022-07-25T14:31:06;30.60;45.40
71237;DHT22;58984;51.960;5.582;2022-07-25T14:33:32;30.60;45.40
71237;DHT22;58984;51.960;5.582;2022-07-25T14:36:02;30.70;45.30
71237;DHT22;58984;51.960;5.582;2022-07-25T14:38:27;30.70;45.40
71237;DHT22;58984;51.960;5.582;2022-07-25T14:40:52;30.70;45.30
71237;DHT22;58984;51.960;5.582;2022-07-25T14:43:18;30.70;45.30
71237;DHT22;58984;51.960;5.582;2022-07-25T14:45:43;30.70;45.30
71237;DHT22;58984;51.960;5.582;2022-07-25T14:48:09;30.70;45.30
71237;DHT22;58984;51.960;5.582;2022-07-25T14:50:34;30.70;45.20
71237;DHT22;58984;51.960;5.582;2022-07-25T14:53:00;30.70;44.20
71237;DHT22;58984;51.960;5.582;2022-07-25T14:55:25;30.60;44.50
71237;DHT22;58984;51.960;5.582;2022-07-25T14:57:51;30.60;44.70
71237;DHT22;58984;51.960;5.582;2022-07-25T15:00:16;30.70;44.90
71237;DHT22;58984;51.960;5.582;2022-07-25T15:02:42;30.60;44.80
71237;DHT22;58984;51.960;5.582;2022-07-25T15:05:08;30.70;45.10
71237;DHT22;58984;51.960;5.582;2022-07-25T15:07:35;30.70;45.10
71237;DHT22;58984;51.960;5.582;2022-07-25T15:10:00;30.60;45.10
71237;DHT22;58984;51.960;5.582;2022-07-25T15:12:25;30.70;45.30
71237;DHT22;58984;51.960;5.582;2022-07-25T15:14:51;30.70;45.40
71237;DHT22;58984;51.960;5.582;2022-07-25T15:17:16;30.70;45.40
71237;DHT22;58984;51.960;5.582;2022-07-25T15:19:42;30.70;45.30
71237;DHT22;58984;51.960;5.582;2022-07-25T15:22:07;30.70;45.30
71237;DHT22;58984;51.960;5.582;2022-07-25T15:24:33;30.70;45.10
71237;DHT22;58984;51.960;5.582;2022-07-25T15:26:58;30.70;45.30
71237;DHT22;58984;51.960;5.582;2022-07-25T15:29:24;30.70;45.00
71237;DHT22;58984;51.960;5.582;2022-07-25T15:31:49;30.70;45.00
71237;DHT22;58984;51.960;5.582;2022-07-25T15:34:15;30.60;44.90
71237;DHT22;58984;51.960;5.582;2022-07-25T15:36:40;30.60;44.30
71237;DHT22;58984;51.960;5.582;2022-07-25T15:39:06;30.60;43.90